createdAt,value
2022-09-01T00:00:04.722Z,18.50
2022-09-01T00:02:34.651Z,18.40
2022-09-01T00:05:04.604Z,18.40
2022-09-01T00:07:31.524Z,18.40
2022-09-01T00:10:00.068Z,18.40
2022-09-01T00:12:28.391Z,18.30
2022-09-01T00:14:55.353Z,18.30
2022-09-01T00:17:22.364Z,18.30
2022-09-01T00:19:49.406Z,18.30
2022-09-01T00:22:16.240Z,18.20
2022-09-01T00:24:43.644Z,18.20
2022-09-01T00:27:10.492Z,18.20
2022-09-01T00:29:37.279Z,18.20
2022-09-01T00:32:05.096Z,18.10
2022-09-01T00:34:31.939Z,18.10
2022-09-01T00:36:59.154Z,18.20
2022-09-01T00:39:26.153Z,18.10
2022-09-01T00:41:53.428Z,18.10
2022-09-01T00:44:24.364Z,18.10
2022-09-01T00:46:55.103Z,18.10
2022-09-01T00:49:29.772Z,18.10
2022-09-01T00:52:13.710Z,18.00
2022-09-01T00:54:48.143Z,18.00
2022-09-01T00:57:16.862Z,18.00
2022-09-01T00:59:57.134Z,18.00
2022-09-01T01:02:24.351Z,18.00
2022-09-01T01:04:52.855Z,17.90
2022-09-01T01:07:22.952Z,17.90
2022-09-01T01:09:51.596Z,17.90
2022-09-01T01:12:19.509Z,17.80
2022-09-01T01:14:52.459Z,17.80
2022-09-01T01:17:25.862Z,17.70
2022-09-01T01:20:15.142Z,17.70
2022-09-01T01:23:20.928Z,17.60
2022-09-01T01:25:53.358Z,17.50
2022-09-01T01:28:32.077Z,17.40
2022-09-01T01:31:02.572Z,17.30
2022-09-01T01:33:40.661Z,17.20
2022-09-01T01:36:13.315Z,17.10
2022-09-01T01:38:43.168Z,17.10
2022-09-01T01:41:15.270Z,17.00
2022-09-01T01:43:42.248Z,16.90
2022-09-01T01:46:11.480Z,16.80
2022-09-01T01:48:41.798Z,16.80
2022-09-01T01:51:11.844Z,16.70
2022-09-01T01:53:41.020Z,16.70
2022-09-01T01:56:10.755Z,16.60
2022-09-01T01:58:38.979Z,16.60
2022-09-01T02:01:11.854Z,16.60
2022-09-01T02:03:39.375Z,16.50
2022-09-01T02:06:09.626Z,16.50
2022-09-01T02:08:38.405Z,16.50
2022-09-01T02:11:07.584Z,16.50
2022-09-01T02:13:35.286Z,16.50
2022-09-01T02:16:07.655Z,16.50
2022-09-01T02:18:37.592Z,16.50
2022-09-01T02:21:15.003Z,16.60
2022-09-01T02:23:45.018Z,16.60
2022-09-01T02:26:16.845Z,16.60
2022-09-01T02:28:50.931Z,16.70
2022-09-01T02:31:23.015Z,16.70
2022-09-01T02:33:50.830Z,16.70
2022-09-01T02:36:21.676Z,16.70
2022-09-01T02:38:53.148Z,16.70
2022-09-01T02:41:23.673Z,16.70
2022-09-01T02:43:50.935Z,16.70
2022-09-01T02:46:19.885Z,16.70
2022-09-01T02:48:48.501Z,16.60
2022-09-01T02:51:18.713Z,16.60
2022-09-01T02:53:52.189Z,16.50
2022-09-01T02:56:25.633Z,16.40
2022-09-01T02:58:54.724Z,16.30
2022-09-01T03:01:29.216Z,16.30
2022-09-01T03:04:03.064Z,16.20
2022-09-01T03:06:34.156Z,16.20
2022-09-01T03:09:02.721Z,16.10
2022-09-01T03:11:35.029Z,16.00
2022-09-01T03:14:02.861Z,16.00
2022-09-01T03:16:33.342Z,16.00
2022-09-01T03:19:03.422Z,15.90
2022-09-01T03:21:32.233Z,15.90
2022-09-01T03:24:02.110Z,15.90
2022-09-01T03:26:31.153Z,15.80
2022-09-01T03:28:59.257Z,15.80
2022-09-01T03:31:31.458Z,15.70
2022-09-01T03:34:02.459Z,15.70
2022-09-01T03:36:34.019Z,15.60
2022-09-01T03:39:01.619Z,15.60
2022-09-01T03:41:31.000Z,15.50
2022-09-01T03:43:59.431Z,15.50
2022-09-01T03:47:01.377Z,15.40
2022-09-01T03:49:29.704Z,15.30
2022-09-01T03:51:58.794Z,15.30
2022-09-01T03:54:30.404Z,15.30
2022-09-01T03:57:00.707Z,15.30
2022-09-01T03:59:29.879Z,15.20
2022-09-01T04:01:57.852Z,15.20
2022-09-01T04:04:26.003Z,15.20
2022-09-01T04:06:53.120Z,15.10
2022-09-01T04:09:20.914Z,15.10
2022-09-01T04:11:48.427Z,15.10
2022-09-01T04:14:16.696Z,15.10
2022-09-01T04:17:03.697Z,15.10
2022-09-01T04:19:37.027Z,15.00
2022-09-01T04:22:05.168Z,15.00
2022-09-01T04:24:46.002Z,15.00
2022-09-01T04:27:15.678Z,15.00
2022-09-01T04:29:45.791Z,15.00
2022-09-01T04:32:13.359Z,14.90
2022-09-01T04:34:43.797Z,14.90
2022-09-01T04:37:21.369Z,14.90
2022-09-01T04:39:56.617Z,14.80
2022-09-01T04:42:27.494Z,14.80
2022-09-01T04:44:57.430Z,14.80
2022-09-01T04:47:35.801Z,14.80
2022-09-01T04:50:13.802Z,14.80
2022-09-01T04:52:47.746Z,14.80
2022-09-01T04:55:28.667Z,14.80
2022-09-01T04:57:57.876Z,14.80
2022-09-01T05:00:27.085Z,14.80
2022-09-01T05:03:04.181Z,14.80
2022-09-01T05:05:50.780Z,14.80
2022-09-01T05:08:24.339Z,14.80
2022-09-01T05:10:56.572Z,14.80
2022-09-01T05:13:46.242Z,14.90
2022-09-01T05:16:22.762Z,15.00
2022-09-01T05:18:55.745Z,15.10
2022-09-01T05:21:26.446Z,15.20
2022-09-01T05:23:54.279Z,15.30
2022-09-01T05:26:30.691Z,15.40
2022-09-01T05:29:04.083Z,15.60
2022-09-01T05:31:35.208Z,15.70
2022-09-01T05:34:03.246Z,15.80
2022-09-01T05:36:33.797Z,16.00
2022-09-01T05:39:02.068Z,16.20
2022-09-01T05:41:29.548Z,16.40
2022-09-01T05:44:00.593Z,16.60
2022-09-01T05:46:30.012Z,16.70
2022-09-01T05:48:58.797Z,16.90
2022-09-01T05:51:43.919Z,17.00
2022-09-01T05:54:12.707Z,17.20
2022-09-01T05:56:44.103Z,17.30
2022-09-01T05:59:23.428Z,17.50
2022-09-01T06:01:53.525Z,17.60
2022-09-01T06:04:22.950Z,17.80
2022-09-01T06:07:08.502Z,18.00
2022-09-01T06:09:41.676Z,18.10
2022-09-01T06:12:17.210Z,18.30
2022-09-01T06:14:46.556Z,18.40
2022-09-01T06:17:19.521Z,18.60
2022-09-01T06:19:46.755Z,18.70
2022-09-01T06:22:13.871Z,18.70
2022-09-01T06:24:40.917Z,18.80
2022-09-01T06:27:11.042Z,18.80
2022-09-01T06:29:41.829Z,18.90
2022-09-01T06:32:13.104Z,19.00
2022-09-01T06:34:49.779Z,19.10
2022-09-01T06:37:17.642Z,19.30
2022-09-01T06:39:45.887Z,19.50
2022-09-01T06:42:13.727Z,19.70
2022-09-01T06:44:48.113Z,19.90
2022-09-01T06:47:15.689Z,20.10
2022-09-01T06:49:42.973Z,20.20
2022-09-01T06:52:16.038Z,20.30
2022-09-01T06:54:43.959Z,20.20
2022-09-01T06:59:58.658Z,20.20
2022-09-01T07:02:26.950Z,20.10
2022-09-01T07:08:10.597Z,20.00
2022-09-01T07:16:42.107Z,20.10
2022-09-01T07:19:19.536Z,20.10
2022-09-01T07:22:08.618Z,20.20
2022-09-01T07:24:40.077Z,20.20
2022-09-01T07:27:41.680Z,20.30
2022-09-01T07:30:11.669Z,20.30
2022-09-01T07:32:43.974Z,20.40
2022-09-01T07:35:18.159Z,20.50
2022-09-01T07:44:05.067Z,21.10
2022-09-01T07:50:37.416Z,24.30
2022-09-01T07:52:49.489Z,26.10
2022-09-01T07:55:17.146Z,27.80
2022-09-01T07:57:46.178Z,29.00
2022-09-01T08:00:16.021Z,29.90
2022-09-01T08:02:55.204Z,31.10
2022-09-01T08:05:33.965Z,31.70
2022-09-01T08:08:01.777Z,32.10
2022-09-01T08:10:32.791Z,32.70
2022-09-01T08:12:59.843Z,33.10
2022-09-01T08:16:06.954Z,33.30
2022-09-01T08:18:14.946Z,33.70
2022-09-01T08:20:47.435Z,33.90
2022-09-01T08:23:34.941Z,33.60
2022-09-01T08:26:06.929Z,34.00
2022-09-01T08:28:34.576Z,34.50
2022-09-01T08:31:11.374Z,34.60
2022-09-01T08:33:40.209Z,35.20
2022-09-01T08:36:08.452Z,35.60
2022-09-01T08:38:36.050Z,35.70
2022-09-01T08:41:03.582Z,35.60
2022-09-01T08:43:54.846Z,35.40
2022-09-01T08:46:27.480Z,34.70
2022-09-01T08:49:24.791Z,33.70
2022-09-01T08:52:23.037Z,34.10
2022-09-01T08:55:00.558Z,34.80
2022-09-01T08:57:36.789Z,35.30
2022-09-01T09:00:28.371Z,35.50
2022-09-01T09:03:15.614Z,35.80
2022-09-01T09:06:03.979Z,36.10
2022-09-01T09:08:37.339Z,36.40
2022-09-01T09:11:30.110Z,36.50
2022-09-01T09:14:06.443Z,35.20
2022-09-01T09:16:51.570Z,33.70
2022-09-01T09:19:40.162Z,34.00
2022-09-01T09:22:14.041Z,32.90
2022-09-01T09:24:50.651Z,32.00
2022-09-01T09:27:24.287Z,31.10
2022-09-01T09:29:53.617Z,30.00
2022-09-01T09:32:23.976Z,29.20
2022-09-01T09:34:55.542Z,28.30
2022-09-01T09:37:29.113Z,27.70
2022-09-01T09:40:08.344Z,27.00
2022-09-01T09:42:39.941Z,26.50
2022-09-01T09:45:24.921Z,26.00
2022-09-01T09:47:53.433Z,25.70
2022-09-01T09:50:26.397Z,25.60
2022-09-01T09:53:10.885Z,25.60
2022-09-01T09:55:56.107Z,25.60
2022-09-01T09:58:26.664Z,26.40
2022-09-01T10:01:22.310Z,26.80
2022-09-01T10:03:59.047Z,26.80
2022-09-01T10:06:42.011Z,26.60
2022-09-01T10:09:16.395Z,26.50
2022-09-01T10:11:45.018Z,27.30
2022-09-01T10:14:35.400Z,27.30
2022-09-01T10:17:08.135Z,27.10
2022-09-01T10:19:40.222Z,26.80
2022-09-01T10:22:09.992Z,26.60
2022-09-01T10:24:39.084Z,26.40
2022-09-01T10:27:19.352Z,26.30
2022-09-01T10:32:55.704Z,26.60
2022-09-01T10:35:32.188Z,26.90
2022-09-01T10:38:04.615Z,26.50
2022-09-01T10:40:33.461Z,26.10
2022-09-01T10:43:36.244Z,25.80
2022-09-01T10:46:25.420Z,25.60
2022-09-01T10:49:03.209Z,25.50
2022-09-01T10:51:36.232Z,25.40
2022-09-01T10:54:06.741Z,25.40
2022-09-01T10:56:51.929Z,25.90
2022-09-01T10:59:44.042Z,26.60
2022-09-01T11:02:36.943Z,27.60
2022-09-01T11:04:58.655Z,29.10
2022-09-01T11:10:34.747Z,32.90
2022-09-01T11:13:10.343Z,33.30
2022-09-01T11:15:42.771Z,32.90
2022-09-01T11:18:26.284Z,32.00
2022-09-01T11:20:55.598Z,30.90
2022-09-01T11:23:30.491Z,30.10
2022-09-01T11:28:44.715Z,29.70
2022-09-01T11:31:20.687Z,29.50
2022-09-01T11:34:01.470Z,29.50
2022-09-01T11:37:01.386Z,29.20
2022-09-01T11:39:39.461Z,28.90
2022-09-01T11:42:26.385Z,29.00
2022-09-01T11:45:12.845Z,28.70
2022-09-01T11:47:52.817Z,28.70
2022-09-01T11:50:34.701Z,28.40
2022-09-01T11:53:05.418Z,28.20
2022-09-01T11:55:44.688Z,29.00
2022-09-01T11:58:31.293Z,29.70
2022-09-01T12:01:13.678Z,30.00
2022-09-01T12:03:41.243Z,29.70
2022-09-01T12:06:12.306Z,30.20
2022-09-01T12:08:42.729Z,29.50
2022-09-01T12:11:20.961Z,29.00
2022-09-01T12:14:07.636Z,28.80
2022-09-01T12:16:40.116Z,29.00
2022-09-01T12:19:07.427Z,29.60
2022-09-01T12:21:42.653Z,30.40
2022-09-01T12:24:22.003Z,31.20
2022-09-01T12:26:51.901Z,31.70
2022-09-01T12:29:19.466Z,31.40
2022-09-01T12:31:50.492Z,30.80
2022-09-01T12:34:38.416Z,30.20
2022-09-01T12:37:26.775Z,29.70
2022-09-01T12:39:57.283Z,29.20
2022-09-01T12:42:40.053Z,28.90
2022-09-01T12:45:10.618Z,28.80
2022-09-01T12:47:37.691Z,28.60
2022-09-01T12:50:13.807Z,28.30
2022-09-01T12:52:52.392Z,28.10
2022-09-01T12:58:13.432Z,27.30
2022-09-01T13:01:11.951Z,26.90
2022-09-01T13:03:43.432Z,26.50
2022-09-01T13:06:10.995Z,26.10
2022-09-01T13:08:37.953Z,25.70
2022-09-01T13:11:11.527Z,25.40
2022-09-01T13:13:39.147Z,25.10
2022-09-01T13:16:12.944Z,25.00
2022-09-01T13:21:29.081Z,24.90
2022-09-01T13:23:56.458Z,24.90
2022-09-01T13:26:24.092Z,24.90
2022-09-01T13:28:51.523Z,24.90
2022-09-01T13:31:34.356Z,24.90
2022-09-01T13:34:10.670Z,24.80
2022-09-01T13:36:51.629Z,24.80
2022-09-01T13:39:20.855Z,24.60
2022-09-01T13:41:48.498Z,24.60
2022-09-01T13:44:17.325Z,24.50
2022-09-01T13:47:28.248Z,24.50
2022-09-01T13:52:19.934Z,24.40
2022-09-01T13:54:47.682Z,24.50
2022-09-01T13:57:16.305Z,24.50
2022-09-01T13:59:43.935Z,24.40
2022-09-01T14:02:11.162Z,24.40
2022-09-01T14:04:38.341Z,24.30
2022-09-01T14:07:05.387Z,24.20
2022-09-01T14:09:32.289Z,24.10
2022-09-01T14:11:59.364Z,24.10
2022-09-01T14:14:26.869Z,24.00
2022-09-01T14:16:54.250Z,23.90
2022-09-01T14:19:21.565Z,23.90
2022-09-01T14:21:49.766Z,23.90
2022-09-01T14:24:19.941Z,24.00
2022-09-01T14:26:47.848Z,24.00
2022-09-01T14:29:14.831Z,23.90
2022-09-01T14:31:43.434Z,23.80
2022-09-01T14:34:11.580Z,23.70
2022-09-01T14:36:39.099Z,23.60
2022-09-01T14:39:06.546Z,23.50
2022-09-01T14:41:33.867Z,23.50
2022-09-01T14:44:03.775Z,23.50
2022-09-01T14:46:34.294Z,23.60
2022-09-01T14:49:02.761Z,23.70
2022-09-01T14:54:18.476Z,23.70
2022-09-01T14:57:27.992Z,23.70
2022-09-01T14:59:32.827Z,23.70
2022-09-01T15:02:02.834Z,23.70
2022-09-01T15:04:30.479Z,23.70
2022-09-01T15:06:57.682Z,23.70
2022-09-01T15:09:24.503Z,23.80
2022-09-01T15:11:51.640Z,23.80
2022-09-01T15:14:18.521Z,23.70
2022-09-01T15:16:46.992Z,23.70
2022-09-01T15:19:14.604Z,23.70
2022-09-01T15:21:43.803Z,23.70
2022-09-01T15:24:11.279Z,23.80
2022-09-01T15:26:40.825Z,23.80
2022-09-01T15:29:13.122Z,23.80
2022-09-01T15:31:40.811Z,23.70
2022-09-01T15:34:08.202Z,23.80
2022-09-01T15:36:39.861Z,23.80
2022-09-01T15:39:08.153Z,23.80
2022-09-01T15:41:35.390Z,23.80
2022-09-01T15:44:07.937Z,23.80
2022-09-01T15:46:36.207Z,23.70
2022-09-01T15:49:05.815Z,23.50
2022-09-01T15:51:36.673Z,23.40
2022-09-01T15:54:15.445Z,23.40
2022-09-01T15:56:42.938Z,23.30
2022-09-01T15:59:14.496Z,23.20
2022-09-01T16:01:45.426Z,23.00
2022-09-01T16:04:19.071Z,23.00
2022-09-01T16:06:49.429Z,23.00
2022-09-01T16:09:18.338Z,23.00
2022-09-01T16:11:45.183Z,23.00
2022-09-01T16:14:12.445Z,22.90
2022-09-01T16:16:49.165Z,22.90
2022-09-01T16:19:37.127Z,23.00
2022-09-01T16:22:25.485Z,23.00
2022-09-01T16:24:57.712Z,23.00
2022-09-01T16:27:40.018Z,23.00
2022-09-01T16:30:10.242Z,23.00
2022-09-01T16:32:40.255Z,22.90
2022-09-01T16:35:07.399Z,22.90
2022-09-01T16:37:53.176Z,22.80
2022-09-01T16:40:46.377Z,22.70
2022-09-01T16:43:16.331Z,22.70
2022-09-01T16:45:55.421Z,22.60
2022-09-01T16:48:41.529Z,22.60
2022-09-01T16:51:28.600Z,22.50
2022-09-01T16:54:09.062Z,22.40
2022-09-01T16:56:40.259Z,22.30
2022-09-01T16:59:25.855Z,22.20
2022-09-01T17:02:15.754Z,22.10
2022-09-01T17:04:48.182Z,22.00
2022-09-01T17:07:29.737Z,22.00
2022-09-01T17:10:30.548Z,21.90
2022-09-01T17:12:58.583Z,21.80
2022-09-01T17:15:39.893Z,21.80
2022-09-01T17:18:10.235Z,21.70
2022-09-01T17:21:02.308Z,21.60
2022-09-01T17:23:38.010Z,21.60
2022-09-01T17:26:13.730Z,21.50
2022-09-01T17:29:06.960Z,21.40
2022-09-01T17:31:49.285Z,21.30
2022-09-01T17:34:29.971Z,21.20
2022-09-01T17:37:08.883Z,21.10
2022-09-01T17:39:49.413Z,21.00
2022-09-01T17:42:30.300Z,20.90
2022-09-01T17:45:20.587Z,20.80
2022-09-01T17:48:09.106Z,20.80
2022-09-01T17:51:01.617Z,20.70
2022-09-01T17:53:35.100Z,20.70
2022-09-01T17:56:24.296Z,20.70
2022-09-01T17:59:01.256Z,20.60
2022-09-01T18:01:47.420Z,20.50
2022-09-01T18:04:32.273Z,20.40
2022-09-01T18:07:37.187Z,20.30
2022-09-01T18:10:07.877Z,20.20
2022-09-01T18:12:37.790Z,20.10
2022-09-01T18:15:19.763Z,20.00
2022-09-01T18:18:12.878Z,20.00
2022-09-01T18:20:46.030Z,19.80
2022-09-01T18:23:17.278Z,19.80
2022-09-01T18:25:56.261Z,19.70
2022-09-01T18:28:23.314Z,19.60
2022-09-01T18:31:12.511Z,19.50
2022-09-01T18:33:57.954Z,19.40
2022-09-01T18:36:43.343Z,19.40
2022-09-01T18:39:22.493Z,19.30
2022-09-01T18:42:10.215Z,19.20
2022-09-01T18:44:52.353Z,19.10
2022-09-01T18:47:49.173Z,19.00
2022-09-01T18:50:45.625Z,18.90
2022-09-01T18:53:46.630Z,18.90
2022-09-01T18:56:19.469Z,18.80
2022-09-01T18:58:55.333Z,18.70
2022-09-01T19:01:36.556Z,18.60
2022-09-01T19:04:23.880Z,18.50
2022-09-01T19:07:09.201Z,18.40
2022-09-01T19:09:42.559Z,18.40
2022-09-01T19:12:47.362Z,18.30
2022-09-01T19:15:25.243Z,18.30
2022-09-01T19:18:12.715Z,18.20
2022-09-01T19:20:47.722Z,18.10
2022-09-01T19:23:38.043Z,18.00
2022-09-01T19:26:09.515Z,18.00
2022-09-01T19:28:53.971Z,17.90
2022-09-01T19:31:24.332Z,17.80
2022-09-01T19:34:15.270Z,17.80
2022-09-01T19:36:53.086Z,17.70
2022-09-01T19:39:30.791Z,17.70
2022-09-01T19:42:07.307Z,17.70
2022-09-01T19:44:39.876Z,17.60
2022-09-01T19:47:47.967Z,17.50
2022-09-01T19:50:31.258Z,17.50
2022-09-01T19:53:11.863Z,17.40
2022-09-01T19:55:48.945Z,17.40
2022-09-01T19:58:30.454Z,17.40
2022-09-01T20:01:01.414Z,17.30
2022-09-01T20:03:40.570Z,17.20
2022-09-01T20:06:13.108Z,17.20
2022-09-01T20:09:15.214Z,17.10
2022-09-01T20:11:57.802Z,17.10
2022-09-01T20:14:28.020Z,17.00
2022-09-01T20:17:05.309Z,17.00
2022-09-01T20:20:08.684Z,17.00
2022-09-01T20:22:57.687Z,17.00
2022-09-01T20:25:30.077Z,16.90
2022-09-01T20:28:05.531Z,16.90
2022-09-01T20:30:46.500Z,16.80
2022-09-01T20:33:25.331Z,16.80
2022-09-01T20:36:03.242Z,16.70
2022-09-01T20:39:31.937Z,16.70
2022-09-01T20:42:15.482Z,16.70
2022-09-01T20:45:00.865Z,16.70
2022-09-01T20:47:30.619Z,16.60
2022-09-01T20:50:00.514Z,16.60
2022-09-01T20:52:33.587Z,16.60
2022-09-01T20:55:19.178Z,16.60
2022-09-01T20:58:16.148Z,16.60
2022-09-01T21:01:26.733Z,16.60
2022-09-01T21:04:32.385Z,16.70
2022-09-01T21:07:18.266Z,16.60
2022-09-01T21:10:19.609Z,16.60
2022-09-01T21:12:53.274Z,16.60
2022-09-01T21:16:21.576Z,16.60
2022-09-01T21:19:12.606Z,16.60
2022-09-01T21:22:13.992Z,16.50
2022-09-01T21:24:48.559Z,16.40
2022-09-01T21:27:18.428Z,16.40
2022-09-01T21:29:53.783Z,16.40
2022-09-01T21:32:37.834Z,16.30
2022-09-01T21:35:07.830Z,16.30
2022-09-01T21:37:34.931Z,16.30
2022-09-01T21:40:01.954Z,16.20
2022-09-01T21:42:46.333Z,16.20
2022-09-01T21:45:15.956Z,16.10
2022-09-01T21:47:44.895Z,16.10
2022-09-01T21:50:12.549Z,16.10
2022-09-01T21:52:40.006Z,16.10
2022-09-01T21:55:07.645Z,16.00
2022-09-01T21:57:36.462Z,16.00
2022-09-01T22:00:13.319Z,16.00
2022-09-01T22:02:45.384Z,15.90
2022-09-01T22:05:13.045Z,15.90
2022-09-01T22:07:42.747Z,15.90
2022-09-01T22:10:13.751Z,15.80
2022-09-01T22:12:42.833Z,15.80
2022-09-01T22:15:12.076Z,15.80
2022-09-01T22:17:38.883Z,15.70
2022-09-01T22:20:09.149Z,15.60
2022-09-01T22:22:36.680Z,15.60
2022-09-01T22:25:10.040Z,15.50
2022-09-01T22:27:37.009Z,15.40
2022-09-01T22:30:09.328Z,15.40
2022-09-01T22:32:37.860Z,15.30
2022-09-01T22:35:10.371Z,15.30
2022-09-01T22:37:38.495Z,15.30
2022-09-01T22:40:06.703Z,15.30
2022-09-01T22:42:33.945Z,15.30
2022-09-01T22:45:06.454Z,15.30
2022-09-01T22:47:39.757Z,15.30
2022-09-01T22:50:08.831Z,15.30
2022-09-01T22:52:36.647Z,15.40
2022-09-01T22:55:04.590Z,15.40
2022-09-01T22:57:32.338Z,15.40
2022-09-01T22:59:59.512Z,15.40
2022-09-01T23:02:27.318Z,15.40
2022-09-01T23:04:54.559Z,15.50
2022-09-01T23:07:21.849Z,15.50
2022-09-01T23:09:48.694Z,15.50
2022-09-01T23:12:15.584Z,15.60
2022-09-01T23:14:42.409Z,15.60
2022-09-01T23:17:09.356Z,15.70
2022-09-01T23:19:36.565Z,15.70
2022-09-01T23:22:03.861Z,15.70
2022-09-01T23:24:30.914Z,15.80
2022-09-01T23:26:57.986Z,15.90
2022-09-01T23:29:25.370Z,15.90
2022-09-01T23:31:52.564Z,15.90
2022-09-01T23:34:19.412Z,16.00
2022-09-01T23:36:46.354Z,16.00
2022-09-01T23:39:13.448Z,16.00
2022-09-01T23:41:40.420Z,16.10
2022-09-01T23:44:09.612Z,16.10
2022-09-01T23:46:42.517Z,16.10
2022-09-01T23:49:11.010Z,16.20
2022-09-01T23:51:38.983Z,16.20
2022-09-01T23:54:06.386Z,16.20
2022-09-01T23:56:33.604Z,16.30
2022-09-01T23:59:04.119Z,16.30
